createdAt,value
2023-01-17T00:00:33.069Z,6.14
2023-01-17T00:02:59.821Z,6.17
2023-01-17T00:05:45.105Z,6.01
2023-01-17T00:08:30.932Z,6.09
2023-01-17T00:10:58.877Z,6.30
2023-01-17T00:13:25.490Z,6.30
2023-01-17T00:15:52.477Z,6.18
2023-01-17T00:18:19.121Z,6.31
2023-01-17T00:21:04.413Z,6.25
2023-01-17T00:23:49.824Z,6.25
2023-01-17T00:26:18.898Z,6.18
2023-01-17T00:28:47.640Z,6.36
2023-01-17T00:31:15.074Z,6.19
2023-01-17T00:33:45.434Z,6.29
2023-01-17T00:36:12.489Z,6.23
2023-01-17T00:38:39.553Z,6.49
2023-01-17T00:41:07.730Z,6.34
2023-01-17T00:43:53.188Z,6.28
2023-01-17T00:46:38.627Z,6.45
2023-01-17T00:49:24.100Z,5.93
2023-01-17T00:52:09.445Z,6.02
2023-01-17T00:54:54.658Z,5.96
2023-01-17T00:57:40.105Z,6.12
2023-01-17T01:00:25.469Z,5.69
2023-01-17T01:03:10.821Z,5.93
2023-01-17T01:05:58.316Z,5.60
2023-01-17T01:08:45.001Z,5.75
2023-01-17T01:11:33.852Z,5.89
2023-01-17T01:14:23.916Z,5.91
2023-01-17T01:17:09.077Z,5.96
2023-01-17T01:19:54.485Z,5.92
2023-01-17T01:22:39.831Z,5.91
2023-01-17T01:25:25.095Z,6.05
2023-01-17T01:28:10.504Z,5.95
2023-01-17T01:30:55.574Z,6.03
2023-01-17T01:33:22.134Z,6.07
2023-01-17T01:35:53.955Z,6.00
2023-01-17T01:38:22.283Z,6.00
2023-01-17T01:40:51.246Z,6.03
2023-01-17T01:43:19.914Z,6.03
2023-01-17T01:45:56.373Z,6.06
2023-01-17T01:48:38.337Z,5.96
2023-01-17T01:51:07.500Z,5.90
2023-01-17T01:53:36.314Z,5.92
2023-01-17T01:56:04.043Z,5.99
2023-01-17T01:58:34.207Z,6.09
2023-01-17T02:01:01.082Z,6.08
2023-01-17T02:03:30.172Z,6.17
2023-01-17T02:06:00.964Z,6.13
2023-01-17T02:08:27.772Z,5.98
2023-01-17T02:10:55.579Z,6.07
2023-01-17T02:13:22.300Z,6.07
2023-01-17T02:15:57.322Z,6.09
2023-01-17T02:18:34.209Z,5.99
2023-01-17T02:21:03.948Z,6.13
2023-01-17T02:23:49.321Z,6.13
2023-01-17T02:26:25.195Z,5.81
2023-01-17T02:29:07.091Z,5.69
2023-01-17T02:32:06.274Z,5.88
2023-01-17T02:34:35.917Z,5.87
2023-01-17T02:37:20.196Z,5.95
2023-01-17T02:39:59.032Z,6.04
2023-01-17T02:42:30.410Z,5.81
2023-01-17T02:44:57.028Z,5.85
2023-01-17T02:47:23.656Z,5.88
2023-01-17T02:49:52.627Z,5.93
2023-01-17T02:52:39.737Z,6.06
2023-01-17T02:55:25.146Z,5.91
2023-01-17T02:58:12.909Z,5.52
2023-01-17T03:01:02.927Z,5.76
2023-01-17T03:03:35.215Z,5.61
2023-01-17T03:06:25.247Z,5.68
2023-01-17T03:08:52.670Z,5.38
2023-01-17T03:11:19.395Z,5.38
2023-01-17T03:13:54.376Z,5.59
2023-01-17T03:16:22.069Z,5.51
2023-01-17T03:18:49.494Z,5.52
2023-01-17T03:21:16.208Z,5.40
2023-01-17T03:23:42.966Z,5.40
2023-01-17T03:26:09.770Z,5.48
2023-01-17T03:28:36.451Z,5.27
2023-01-17T03:31:03.131Z,5.33
2023-01-17T03:33:29.766Z,5.32
2023-01-17T03:35:58.222Z,5.33
2023-01-17T03:38:25.739Z,5.36
2023-01-17T03:40:52.642Z,5.22
2023-01-17T03:43:19.452Z,5.33
2023-01-17T03:45:48.827Z,5.12
2023-01-17T03:48:15.564Z,4.94
2023-01-17T03:50:42.325Z,4.96
2023-01-17T03:53:08.900Z,5.26
2023-01-17T03:55:35.554Z,5.22
2023-01-17T03:58:02.135Z,5.08
2023-01-17T04:00:28.829Z,5.05
2023-01-17T04:02:58.457Z,5.01
2023-01-17T04:05:27.376Z,4.82
2023-01-17T04:07:54.176Z,4.65
2023-01-17T04:10:20.986Z,4.75
2023-01-17T04:12:48.260Z,4.91
2023-01-17T04:15:18.101Z,5.01
2023-01-17T04:17:44.770Z,5.08
2023-01-17T04:20:27.506Z,5.03
2023-01-17T04:22:54.077Z,5.20
2023-01-17T04:25:20.618Z,4.93
2023-01-17T04:27:47.454Z,5.21
2023-01-17T04:30:14.081Z,5.29
2023-01-17T04:32:43.101Z,5.26
2023-01-17T04:35:09.814Z,5.16
2023-01-17T04:37:36.527Z,5.12
2023-01-17T04:40:05.241Z,4.94
2023-01-17T04:42:35.192Z,5.20
2023-01-17T04:45:02.841Z,5.05
2023-01-17T04:47:29.580Z,5.04
2023-01-17T04:49:58.552Z,4.99
2023-01-17T04:52:34.966Z,4.99
2023-01-17T04:55:02.363Z,5.12
2023-01-17T04:57:36.406Z,4.93
2023-01-17T05:00:03.469Z,5.02
2023-01-17T05:02:30.067Z,5.06
2023-01-17T05:04:56.702Z,5.06
2023-01-17T05:07:23.276Z,5.05
2023-01-17T05:09:52.924Z,5.21
2023-01-17T05:12:20.673Z,5.31
2023-01-17T05:14:47.529Z,4.98
2023-01-17T05:17:14.093Z,5.02
2023-01-17T05:19:40.758Z,5.18
2023-01-17T05:22:15.438Z,5.06
2023-01-17T05:24:45.633Z,5.06
2023-01-17T05:27:12.834Z,5.06
2023-01-17T05:29:39.672Z,5.05
2023-01-17T05:32:06.614Z,5.06
2023-01-17T05:34:33.289Z,5.20
2023-01-17T05:36:59.937Z,5.23
2023-01-17T05:39:26.662Z,5.21
2023-01-17T05:41:53.268Z,5.21
2023-01-17T05:44:20.210Z,5.37
2023-01-17T05:46:46.877Z,5.18
2023-01-17T05:49:14.149Z,5.20
2023-01-17T05:51:40.867Z,5.02
2023-01-17T05:54:07.486Z,5.22
2023-01-17T05:56:34.248Z,5.22
2023-01-17T05:59:04.139Z,5.26
2023-01-17T06:01:31.266Z,5.06
2023-01-17T06:03:58.125Z,5.07
2023-01-17T06:06:24.872Z,5.13
2023-01-17T06:08:51.396Z,5.22
2023-01-17T06:11:19.146Z,5.02
2023-01-17T06:13:48.147Z,4.97
2023-01-17T06:16:20.842Z,5.00
2023-01-17T06:18:48.117Z,4.99
2023-01-17T06:21:19.193Z,4.58
2023-01-17T06:23:46.287Z,4.64
2023-01-17T06:26:12.971Z,4.63
2023-01-17T06:28:39.573Z,4.71
2023-01-17T06:31:08.572Z,4.53
2023-01-17T06:33:35.509Z,4.46
2023-01-17T06:36:06.986Z,4.42
2023-01-17T06:38:36.873Z,4.49
2023-01-17T06:41:04.521Z,4.43
2023-01-17T06:43:33.718Z,4.35
2023-01-17T06:46:01.006Z,4.47
2023-01-17T06:48:27.867Z,4.36
2023-01-17T06:50:54.538Z,4.42
2023-01-17T06:53:22.298Z,4.01
2023-01-17T06:55:49.049Z,4.03
2023-01-17T06:58:16.994Z,4.01
2023-01-17T07:00:44.713Z,4.02
2023-01-17T07:03:38.258Z,3.98
2023-01-17T07:06:05.485Z,3.94
2023-01-17T07:08:32.366Z,3.79
2023-01-17T07:11:03.492Z,3.71
2023-01-17T07:13:36.237Z,3.83
2023-01-17T07:16:03.922Z,3.63
2023-01-17T07:18:34.973Z,3.80
2023-01-17T07:21:01.629Z,3.70
2023-01-17T07:23:28.233Z,3.70
2023-01-17T07:26:05.575Z,3.47
2023-01-17T07:28:33.237Z,3.53
2023-01-17T07:31:05.654Z,3.67
2023-01-17T07:33:35.661Z,3.49
2023-01-17T07:36:07.584Z,3.34
2023-01-17T07:38:34.864Z,3.51
2023-01-17T07:41:03.635Z,3.46
2023-01-17T07:43:30.436Z,3.39
2023-01-17T07:45:57.615Z,3.32
2023-01-17T07:48:24.975Z,3.40
2023-01-17T07:50:56.356Z,3.42
2023-01-17T07:53:26.315Z,3.54
2023-01-17T07:55:52.973Z,3.51
2023-01-17T07:58:19.634Z,3.33
2023-01-17T08:00:46.452Z,3.47
2023-01-17T08:03:15.189Z,3.42
2023-01-17T08:05:52.895Z,3.51
2023-01-17T08:08:19.691Z,3.46
2023-01-17T08:10:46.463Z,3.63
2023-01-17T08:13:13.101Z,3.52
2023-01-17T08:15:40.000Z,3.54
2023-01-17T08:18:06.590Z,3.55
2023-01-17T08:20:33.237Z,3.55
2023-01-17T08:22:59.860Z,3.60
2023-01-17T08:25:27.085Z,3.69
2023-01-17T08:27:56.969Z,3.77
2023-01-17T08:30:25.952Z,3.53
2023-01-17T08:32:52.613Z,3.46
2023-01-17T08:35:20.374Z,3.61
2023-01-17T08:37:47.657Z,3.86
2023-01-17T08:40:18.195Z,3.69
2023-01-17T08:42:45.372Z,3.59
2023-01-17T08:45:14.846Z,3.58
2023-01-17T08:47:41.821Z,3.56
2023-01-17T08:50:09.256Z,3.56
2023-01-17T08:52:36.296Z,3.80
2023-01-17T08:55:03.236Z,3.78
2023-01-17T08:57:30.982Z,3.64
2023-01-17T08:59:57.609Z,3.82
2023-01-17T09:02:24.793Z,3.67
2023-01-17T09:04:54.235Z,3.74
2023-01-17T09:07:21.057Z,3.89
2023-01-17T09:09:48.369Z,3.57
2023-01-17T09:12:24.834Z,3.66
2023-01-17T09:14:51.450Z,3.74
2023-01-17T09:17:21.920Z,3.90
2023-01-17T09:19:49.094Z,3.87
2023-01-17T09:22:19.008Z,3.75
2023-01-17T09:24:45.911Z,3.72
2023-01-17T09:27:13.235Z,4.07
2023-01-17T09:29:39.936Z,3.96
2023-01-17T09:32:06.480Z,4.14
2023-01-17T09:34:36.681Z,4.14
2023-01-17T09:37:03.296Z,4.24
2023-01-17T09:39:31.144Z,4.37
2023-01-17T09:42:02.234Z,4.27
2023-01-17T09:44:33.481Z,4.57
2023-01-17T09:47:13.220Z,4.53
2023-01-17T09:49:42.767Z,4.44
2023-01-17T09:52:17.661Z,4.40
2023-01-17T09:54:46.765Z,4.51
2023-01-17T09:57:25.650Z,4.77
2023-01-17T10:00:04.271Z,4.80
2023-01-17T10:02:58.817Z,4.97
2023-01-17T10:05:34.008Z,4.89
2023-01-17T10:08:09.746Z,4.95
2023-01-17T10:10:57.807Z,5.01
2023-01-17T10:13:29.061Z,4.98
2023-01-17T10:16:14.648Z,4.83
2023-01-17T10:18:59.023Z,5.04
2023-01-17T10:21:44.557Z,5.38
2023-01-17T10:24:28.163Z,5.08
2023-01-17T10:26:56.505Z,5.27
2023-01-17T10:29:30.691Z,5.47
2023-01-17T10:32:01.783Z,5.33
2023-01-17T10:34:29.856Z,5.43
2023-01-17T10:37:03.131Z,5.21
2023-01-17T10:39:36.113Z,5.61
2023-01-17T10:42:08.126Z,7.32
2023-01-17T10:44:45.059Z,8.57
2023-01-17T10:47:11.647Z,10.14
2023-01-17T10:49:48.256Z,11.28
2023-01-17T10:52:37.962Z,12.07
2023-01-17T10:55:22.204Z,12.30
2023-01-17T10:57:54.372Z,13.32
2023-01-17T11:00:27.077Z,13.87
2023-01-17T11:02:54.115Z,13.05
2023-01-17T11:05:25.015Z,12.41
2023-01-17T11:08:08.238Z,13.69
2023-01-17T11:10:39.863Z,12.04
2023-01-17T11:13:26.975Z,11.33
2023-01-17T11:15:57.747Z,10.14
2023-01-17T11:18:27.708Z,11.21
2023-01-17T11:21:12.226Z,12.63
2023-01-17T11:23:41.237Z,12.66
2023-01-17T11:26:10.488Z,11.98
2023-01-17T11:28:39.549Z,13.00
2023-01-17T11:31:08.057Z,13.30
2023-01-17T11:33:55.862Z,12.75
2023-01-17T11:36:32.116Z,12.18
2023-01-17T11:39:17.227Z,12.20
2023-01-17T11:42:09.473Z,11.75
2023-01-17T11:44:36.497Z,13.17
2023-01-17T11:47:13.817Z,12.91
2023-01-17T11:49:41.823Z,12.90
2023-01-17T11:52:31.509Z,12.36
2023-01-17T11:57:51.391Z,11.57
2023-01-17T12:00:30.877Z,10.14
2023-01-17T12:03:23.275Z,9.56
2023-01-17T12:06:09.030Z,10.11
2023-01-17T12:08:56.319Z,10.05
2023-01-17T12:12:19.388Z,8.81
2023-01-17T12:15:04.147Z,9.03
2023-01-17T12:17:47.311Z,8.74
2023-01-17T12:20:46.346Z,7.37
2023-01-17T12:23:19.698Z,7.26
2023-01-17T12:26:08.638Z,6.82
2023-01-17T12:29:21.672Z,7.90
2023-01-17T12:32:33.138Z,8.81
2023-01-17T12:35:18.637Z,9.74
2023-01-17T12:37:52.700Z,9.81
2023-01-17T12:40:24.277Z,9.50
2023-01-17T12:43:08.781Z,8.43
2023-01-17T12:45:43.474Z,9.01
2023-01-17T12:48:42.043Z,9.39
2023-01-17T12:51:15.686Z,9.04
2023-01-17T12:53:47.796Z,9.19
2023-01-17T12:56:18.435Z,9.66
2023-01-17T12:58:47.558Z,10.00
2023-01-17T13:01:17.404Z,10.23
2023-01-17T13:04:04.142Z,9.85
2023-01-17T13:06:52.756Z,9.34
2023-01-17T13:09:21.863Z,9.15
2023-01-17T13:12:10.685Z,9.38
2023-01-17T13:14:37.441Z,9.41
2023-01-17T13:17:07.040Z,10.06
2023-01-17T13:19:52.873Z,10.87
2023-01-17T13:22:22.056Z,10.85
2023-01-17T13:24:55.735Z,10.69
2023-01-17T13:27:42.677Z,10.75
2023-01-17T13:30:22.320Z,10.51
2023-01-17T13:33:01.607Z,9.76
2023-01-17T13:35:50.757Z,9.18
2023-01-17T13:38:20.424Z,8.29
2023-01-17T13:40:58.493Z,8.55
2023-01-17T13:43:26.332Z,8.53
2023-01-17T13:45:54.451Z,7.66
2023-01-17T13:48:21.268Z,7.37
2023-01-17T13:50:49.444Z,7.25
2023-01-17T13:53:39.192Z,7.03
2023-01-17T13:56:27.059Z,6.85
2023-01-17T13:59:02.224Z,6.82
2023-01-17T14:01:31.950Z,6.62
2023-01-17T14:03:58.656Z,6.55
2023-01-17T14:06:37.512Z,6.21
2023-01-17T14:09:22.914Z,6.21
2023-01-17T14:11:54.843Z,6.17
2023-01-17T14:14:41.030Z,6.19
2023-01-17T14:17:23.221Z,6.37
2023-01-17T14:19:50.904Z,6.07
2023-01-17T14:22:23.730Z,6.14
2023-01-17T14:24:59.555Z,5.89
2023-01-17T14:27:27.624Z,6.03
2023-01-17T14:30:03.720Z,6.67
2023-01-17T14:32:35.484Z,6.97
2023-01-17T14:35:06.078Z,6.58
2023-01-17T14:37:32.684Z,6.51
2023-01-17T14:40:01.784Z,6.19
2023-01-17T14:42:30.665Z,5.94
2023-01-17T14:45:05.732Z,6.00
2023-01-17T14:47:34.630Z,5.87
2023-01-17T14:50:10.445Z,6.04
2023-01-17T14:52:37.095Z,5.60
2023-01-17T14:55:14.717Z,5.68
2023-01-17T14:57:42.897Z,5.78
2023-01-17T15:00:11.050Z,5.96
2023-01-17T15:02:44.225Z,5.93
2023-01-17T15:05:15.416Z,5.68
2023-01-17T15:07:43.982Z,5.76
2023-01-17T15:10:12.877Z,5.52
2023-01-17T15:12:41.086Z,5.57
2023-01-17T15:15:25.733Z,5.69
2023-01-17T15:17:53.930Z,5.76
2023-01-17T15:20:20.767Z,5.66
2023-01-17T15:22:53.722Z,5.88
2023-01-17T15:25:22.567Z,5.90
2023-01-17T15:27:49.263Z,5.96
2023-01-17T15:30:16.207Z,5.90
2023-01-17T15:32:47.807Z,5.64
2023-01-17T15:35:18.384Z,5.33
2023-01-17T15:37:45.076Z,5.42
2023-01-17T15:40:21.057Z,5.29
2023-01-17T15:42:53.057Z,5.27
2023-01-17T15:45:22.451Z,5.23
2023-01-17T15:47:49.157Z,5.03
2023-01-17T15:50:30.077Z,5.18
2023-01-17T15:53:01.631Z,5.18
2023-01-17T15:55:33.097Z,5.07
2023-01-17T15:57:59.985Z,5.02
2023-01-17T16:00:37.843Z,4.98
2023-01-17T16:03:21.868Z,4.89
2023-01-17T16:05:49.988Z,4.74
2023-01-17T16:08:16.544Z,4.91
2023-01-17T16:10:43.694Z,4.76
2023-01-17T16:13:11.255Z,4.44
2023-01-17T16:15:38.393Z,4.42
2023-01-17T16:18:07.509Z,4.32
2023-01-17T16:20:34.131Z,4.20
2023-01-17T16:23:00.791Z,4.31
2023-01-17T16:25:34.819Z,4.29
2023-01-17T16:28:05.537Z,4.10
2023-01-17T16:30:32.674Z,4.16
2023-01-17T16:32:59.599Z,4.16
2023-01-17T16:35:30.900Z,4.04
2023-01-17T16:37:58.599Z,4.11
2023-01-17T16:40:27.335Z,4.10
2023-01-17T16:42:55.370Z,4.44
2023-01-17T16:45:23.544Z,4.33
2023-01-17T16:47:50.978Z,4.21
2023-01-17T16:50:22.378Z,4.09
2023-01-17T16:52:52.991Z,4.26
2023-01-17T16:55:22.137Z,4.24
2023-01-17T16:57:54.239Z,4.25
2023-01-17T17:00:22.702Z,4.01
2023-01-17T17:02:50.014Z,3.72
2023-01-17T17:05:16.735Z,3.82
2023-01-17T17:07:45.577Z,3.77
2023-01-17T17:10:14.094Z,3.51
2023-01-17T17:12:41.036Z,3.53
2023-01-17T17:15:10.608Z,3.64
2023-01-17T17:17:38.305Z,3.72
2023-01-17T17:20:06.056Z,3.68
2023-01-17T17:22:32.894Z,3.79
2023-01-17T17:25:00.089Z,3.76
2023-01-17T17:27:35.924Z,3.72
2023-01-17T17:30:02.617Z,3.61
2023-01-17T17:32:29.337Z,3.62
2023-01-17T17:34:56.005Z,3.41
2023-01-17T17:37:29.034Z,3.32
2023-01-17T17:39:56.156Z,3.30
2023-01-17T17:42:22.990Z,3.38
2023-01-17T17:44:49.584Z,3.00
2023-01-17T17:47:16.485Z,3.09
2023-01-17T17:49:43.547Z,3.08
2023-01-17T17:52:12.166Z,3.07
2023-01-17T17:54:38.832Z,2.81
2023-01-17T17:57:05.499Z,2.49
2023-01-17T17:59:32.299Z,2.55
2023-01-17T18:01:59.910Z,2.13
2023-01-17T18:04:28.892Z,2.39
2023-01-17T18:06:56.751Z,2.47
2023-01-17T18:09:23.470Z,2.32
2023-01-17T18:11:50.034Z,2.83
2023-01-17T18:14:17.783Z,3.09
2023-01-17T18:16:44.944Z,3.13
2023-01-17T18:19:19.804Z,3.03
2023-01-17T18:21:46.943Z,3.22
2023-01-17T18:24:14.566Z,2.80
2023-01-17T18:26:43.329Z,2.53
2023-01-17T18:29:11.256Z,2.85
2023-01-17T18:31:37.955Z,2.80
2023-01-17T18:34:05.757Z,2.95
2023-01-17T18:36:34.513Z,2.44
2023-01-17T18:39:01.532Z,2.39
2023-01-17T18:41:29.214Z,2.48
2023-01-17T18:43:56.192Z,2.71
2023-01-17T18:46:23.355Z,2.98
2023-01-17T18:48:49.997Z,2.79
2023-01-17T18:51:17.789Z,2.96
2023-01-17T18:53:44.970Z,2.85
2023-01-17T18:56:12.977Z,2.78
2023-01-17T18:58:41.615Z,2.60
2023-01-17T19:01:09.897Z,2.57
2023-01-17T19:03:37.703Z,2.66
2023-01-17T19:06:05.295Z,2.73
2023-01-17T19:08:33.734Z,2.61
2023-01-17T19:11:01.204Z,2.54
2023-01-17T19:13:28.016Z,2.28
2023-01-17T19:16:03.020Z,2.56
2023-01-17T19:18:30.131Z,2.57
2023-01-17T19:21:04.496Z,2.75
2023-01-17T19:23:32.324Z,2.74
2023-01-17T19:25:59.291Z,2.93
2023-01-17T19:28:26.499Z,2.76
2023-01-17T19:31:08.870Z,2.73
2023-01-17T19:33:36.868Z,2.53
2023-01-17T19:36:06.011Z,2.37
2023-01-17T19:38:34.308Z,2.22
2023-01-17T19:41:09.225Z,2.06
2023-01-17T19:43:36.230Z,2.44
2023-01-17T19:46:08.314Z,2.04
2023-01-17T19:51:49.584Z,2.40
2023-01-17T19:54:19.341Z,2.20
2023-01-17T19:56:47.656Z,2.33
2023-01-17T19:59:14.320Z,2.30
2023-01-17T20:01:41.194Z,2.37
2023-01-17T20:04:07.948Z,2.39
2023-01-17T20:06:37.235Z,2.40
2023-01-17T20:09:05.168Z,2.24
2023-01-17T20:11:31.855Z,2.15
2023-01-17T20:14:00.450Z,2.00
2023-01-17T20:16:28.582Z,1.95
2023-01-17T20:18:55.479Z,1.96
2023-01-17T20:21:23.385Z,1.92
2023-01-17T20:23:50.962Z,1.79
2023-01-17T20:26:20.790Z,1.31
2023-01-17T20:28:49.715Z,1.70
2023-01-17T20:31:20.280Z,1.91
2023-01-17T20:33:47.636Z,1.63
2023-01-17T20:36:15.677Z,1.77
2023-01-17T20:38:45.979Z,2.24
2023-01-17T20:41:20.074Z,2.31
2023-01-17T20:43:51.339Z,2.09
2023-01-17T20:46:18.584Z,2.05
2023-01-17T20:48:46.050Z,2.22
2023-01-17T20:51:13.200Z,2.22
2023-01-17T20:53:41.696Z,2.11
2023-01-17T20:56:15.449Z,2.16
2023-01-17T20:58:42.117Z,2.00
2023-01-17T21:01:09.944Z,1.94
2023-01-17T21:03:38.566Z,2.04
2023-01-17T21:06:10.062Z,2.20
2023-01-17T21:08:37.693Z,2.46
2023-01-17T21:11:04.628Z,2.29
2023-01-17T21:13:31.793Z,2.01
2023-01-17T21:15:58.841Z,2.15
2023-01-17T21:18:26.400Z,2.07
2023-01-17T21:20:53.128Z,2.01
2023-01-17T21:23:20.210Z,1.94
2023-01-17T21:25:55.547Z,1.81
2023-01-17T21:28:23.687Z,2.03
2023-01-17T21:30:50.340Z,2.05
2023-01-17T21:33:17.846Z,2.23
2023-01-17T21:36:05.603Z,2.23
2023-01-17T21:38:32.914Z,1.56
2023-01-17T21:41:04.113Z,1.75
2023-01-17T21:43:33.823Z,1.66
2023-01-17T21:46:02.180Z,1.71
2023-01-17T21:48:29.249Z,1.85
2023-01-17T21:50:55.852Z,1.90
2023-01-17T21:53:22.586Z,1.99
2023-01-17T21:56:07.861Z,1.88
2023-01-17T21:58:43.430Z,1.21
2023-01-17T22:01:21.451Z,1.66
2023-01-17T22:03:49.487Z,1.57
2023-01-17T22:06:16.201Z,1.62
2023-01-17T22:08:42.949Z,1.05
2023-01-17T22:11:14.620Z,1.41
2023-01-17T22:13:42.329Z,1.32
2023-01-17T22:16:11.424Z,1.37
2023-01-17T22:18:39.104Z,1.16
2023-01-17T22:21:08.057Z,1.36
2023-01-17T22:23:35.277Z,1.76
2023-01-17T22:26:11.996Z,1.89
2023-01-17T22:28:40.070Z,1.74
2023-01-17T22:31:08.307Z,1.65
2023-01-17T22:33:36.080Z,1.42
2023-01-17T22:36:02.664Z,1.47
2023-01-17T22:38:29.932Z,1.87
2023-01-17T22:41:01.749Z,1.94
2023-01-17T22:43:28.347Z,1.49
2023-01-17T22:46:01.024Z,1.15
2023-01-17T22:48:27.668Z,1.22
2023-01-17T22:50:58.578Z,1.40
2023-01-17T22:53:25.900Z,1.33
2023-01-17T22:56:05.909Z,1.50
2023-01-17T22:58:32.702Z,1.68
2023-01-17T23:01:03.817Z,1.45
2023-01-17T23:03:30.744Z,1.63
2023-01-17T23:05:57.396Z,1.88
2023-01-17T23:08:24.061Z,1.69
2023-01-17T23:11:09.272Z,1.90
2023-01-17T23:13:38.906Z,1.65
2023-01-17T23:16:24.209Z,1.06
2023-01-17T23:19:09.608Z,1.22
2023-01-17T23:22:02.937Z,1.30
2023-01-17T23:24:30.280Z,1.41
2023-01-17T23:27:15.517Z,1.48
2023-01-17T23:29:42.995Z,1.42
2023-01-17T23:32:10.261Z,1.72
2023-01-17T23:34:43.144Z,1.61
2023-01-17T23:37:09.851Z,1.47
2023-01-17T23:39:36.804Z,1.55
2023-01-17T23:42:23.950Z,1.85
2023-01-17T23:44:51.915Z,1.68
2023-01-17T23:47:28.616Z,1.63
2023-01-17T23:49:59.050Z,1.01
2023-01-17T23:52:25.704Z,0.62
2023-01-17T23:54:56.494Z,0.14
2023-01-17T23:57:29.730Z,-0.01
2023-01-17T23:59:57.331Z,0.00
